DLH412 EDDM-KMIA
Flight info
| Callsign | DLH412 |
|---|---|
| Flight time | N/A |
| Altitude | 34000 |
| Route | OLASO2E OLASO Z714 PELOG UM164 LUPEN/N0490F350 DCT POGOL DCT LUVAL DCT ROTSI/N0488F340 DCT AMODO DCT COHPA UM729 RESMI UN491 LGL UN502 JSY DCT LIZAD DCT LULOX/M086F360 DCT GIPER DCT ELSOX DCT DINIM/M086F370 NATJ SUPRY/M086F380 DCT LOMPI M202 ONGOT DCT PADRK/M086F400 M203 SNAGY/N0493F400 BNFSH3 |
| Aircraft | A388/J-SADE2E3FGHIJ3J4J5M1RWXY/LB1D1 |
Departure
| Time | 2026-05-08 07:51 |
|---|---|
| Airport | Munich Airport (EDDM) |
Arrival
| Time | N/A |
|---|---|
| Airport | Miami International Airport (KMIA) |
| Time | Latitude | Longitude | Altitude | Speed | Heading |
|---|---|---|---|---|---|
| 2026-05-08 06:47 | 48.35468 | 11.79728 | 1482 ft | 0 kts | 83° |
| 2026-05-08 07:33 | 48.35465 | 11.79692 | 1486 ft | 4 kts | 83° |
| 2026-05-08 07:33 | 48.35463 | 11.79656 | 1475 ft | 1 kts | 83° |
| 2026-05-08 07:33 | 48.35462 | 11.79622 | 1477 ft | 4 kts | 98° |
| 2026-05-08 07:33 | 48.35469 | 11.79594 | 1475 ft | 4 kts | 134° |
| 2026-05-08 07:34 | 48.35481 | 11.79585 | 1475 ft | 3 kts | 173° |
| 2026-05-08 07:34 | 48.35508 | 11.79581 | 1475 ft | 4 kts | 173° |
| 2026-05-08 07:34 | 48.35518 | 11.79579 | 1475 ft | 1 kts | 173° |
| 2026-05-08 07:38 | 48.35516 | 11.79579 | 1475 ft | 2 kts | 173° |
| 2026-05-08 07:38 | 48.35491 | 11.79584 | 1480 ft | 5 kts | 173° |
| 2026-05-08 07:38 | 48.35443 | 11.79592 | 1490 ft | 8 kts | 173° |
| 2026-05-08 07:38 | 48.35381 | 11.79603 | 1483 ft | 10 kts | 173° |
| 2026-05-08 07:39 | 48.35305 | 11.79616 | 1477 ft | 12 kts | 173° |
| 2026-05-08 07:39 | 48.35219 | 11.79631 | 1485 ft | 13 kts | 173° |
| 2026-05-08 07:39 | 48.35125 | 11.79648 | 1488 ft | 14 kts | 173° |
| 2026-05-08 07:39 | 48.35023 | 11.79665 | 1485 ft | 15 kts | 173° |
| 2026-05-08 07:40 | 48.34916 | 11.79683 | 1479 ft | 16 kts | 173° |
| 2026-05-08 07:40 | 48.34834 | 11.79697 | 1486 ft | 9 kts | 186° |
| 2026-05-08 07:40 | 48.34798 | 11.79649 | 1475 ft | 7 kts | 260° |
| 2026-05-08 07:40 | 48.34790 | 11.79544 | 1482 ft | 12 kts | 263° |
| 2026-05-08 07:41 | 48.34780 | 11.79405 | 1478 ft | 14 kts | 263° |
| 2026-05-08 07:41 | 48.34767 | 11.79246 | 1476 ft | 16 kts | 263° |
| 2026-05-08 07:41 | 48.34753 | 11.79070 | 1486 ft | 18 kts | 263° |
| 2026-05-08 07:41 | 48.34738 | 11.78879 | 1475 ft | 19 kts | 263° |
| 2026-05-08 07:42 | 48.34723 | 11.78678 | 1476 ft | 20 kts | 264° |
| 2026-05-08 07:42 | 48.34707 | 11.78468 | 1483 ft | 21 kts | 263° |
| 2026-05-08 07:42 | 48.34691 | 11.78253 | 1485 ft | 21 kts | 263° |
| 2026-05-08 07:42 | 48.34673 | 11.78033 | 1490 ft | 22 kts | 263° |
| 2026-05-08 07:43 | 48.34656 | 11.77807 | 1485 ft | 22 kts | 263° |
| 2026-05-08 07:43 | 48.34638 | 11.77579 | 1482 ft | 22 kts | 263° |
| 2026-05-08 07:43 | 48.34620 | 11.77349 | 1477 ft | 22 kts | 263° |
| 2026-05-08 07:43 | 48.34603 | 11.77122 | 1490 ft | 22 kts | 263° |
| 2026-05-08 07:44 | 48.34586 | 11.76892 | 1481 ft | 22 kts | 263° |
| 2026-05-08 07:44 | 48.34568 | 11.76659 | 1490 ft | 23 kts | 263° |
| 2026-05-08 07:44 | 48.34550 | 11.76423 | 1477 ft | 23 kts | 263° |
| 2026-05-08 07:44 | 48.34532 | 11.76188 | 1487 ft | 23 kts | 263° |
| 2026-05-08 07:45 | 48.34513 | 11.75952 | 1484 ft | 23 kts | 263° |
| 2026-05-08 07:45 | 48.34495 | 11.75714 | 1479 ft | 23 kts | 263° |
| 2026-05-08 07:45 | 48.34477 | 11.75474 | 1478 ft | 23 kts | 263° |
| 2026-05-08 07:45 | 48.34460 | 11.75256 | 1481 ft | 13 kts | 263° |
| 2026-05-08 07:46 | 48.34449 | 11.75110 | 1476 ft | 15 kts | 263° |
| 2026-05-08 07:46 | 48.34430 | 11.74980 | 1480 ft | 12 kts | 236° |
| 2026-05-08 07:46 | 48.34382 | 11.74920 | 1481 ft | 8 kts | 197° |
| 2026-05-08 07:46 | 48.34325 | 11.74914 | 1478 ft | 8 kts | 176° |
| 2026-05-08 07:47 | 48.34282 | 11.74920 | 1480 ft | 6 kts | 173° |
| 2026-05-08 07:47 | 48.34237 | 11.74928 | 1484 ft | 7 kts | 168° |
| 2026-05-08 07:47 | 48.34202 | 11.74949 | 1475 ft | 6 kts | 146° |
| 2026-05-08 07:47 | 48.34188 | 11.74964 | 1476 ft | 0 kts | 137° |
| 2026-05-08 07:48 | 48.34186 | 11.74967 | 1481 ft | 2 kts | 137° |
| 2026-05-08 07:48 | 48.34171 | 11.74989 | 1475 ft | 4 kts | 129° |
| 2026-05-08 07:49 | 48.34148 | 11.75032 | 1475 ft | 6 kts | 129° |
| 2026-05-08 07:49 | 48.34115 | 11.75093 | 1475 ft | 8 kts | 129° |
| 2026-05-08 07:49 | 48.34082 | 11.75168 | 1478 ft | 9 kts | 105° |
| 2026-05-08 07:49 | 48.34079 | 11.75251 | 1480 ft | 6 kts | 82° |
| 2026-05-08 07:50 | 48.34098 | 11.75489 | 1490 ft | 55 kts | 84° |
| 2026-05-08 07:50 | 48.34167 | 11.76396 | 1490 ft | 121 kts | 83° |
| 2026-05-08 07:50 | 48.34282 | 11.77893 | 1485 ft | 164 kts | 83° |
| 2026-05-08 07:50 | 48.34437 | 11.79680 | 1776 ft | 173 kts | 84° |
| 2026-05-08 07:51 | 48.34553 | 11.81519 | 2058 ft | 184 kts | 85° |
| 2026-05-08 07:51 | 48.34665 | 11.83487 | 2184 ft | 198 kts | 84° |
| 2026-05-08 07:51 | 48.34818 | 11.85615 | 2295 ft | 210 kts | 83° |
| 2026-05-08 07:51 | 48.35001 | 11.87915 | 2453 ft | 228 kts | 83° |
| 2026-05-08 07:52 | 48.35197 | 11.90302 | 2985 ft | 235 kts | 83° |
| 2026-05-08 07:52 | 48.35394 | 11.92735 | 3629 ft | 238 kts | 84° |
| 2026-05-08 07:52 | 48.35238 | 11.95200 | 4306 ft | 240 kts | 112° |
| 2026-05-08 07:52 | 48.34275 | 11.97251 | 4945 ft | 245 kts | 141° |
| 2026-05-08 07:53 | 48.32911 | 11.98822 | 5570 ft | 250 kts | 144° |
| 2026-05-08 07:53 | 48.31499 | 12.00394 | 6214 ft | 254 kts | 144° |
| 2026-05-08 07:53 | 48.30060 | 12.01944 | 6870 ft | 255 kts | 153° |
| 2026-05-08 07:53 | 48.28376 | 12.02734 | 7499 ft | 255 kts | 179° |
| 2026-05-08 07:54 | 48.26599 | 12.02641 | 8063 ft | 261 kts | 186° |
| 2026-05-08 07:54 | 48.24718 | 12.02491 | 8364 ft | 278 kts | 185° |
| 2026-05-08 07:54 | 48.22775 | 12.02372 | 8984 ft | 281 kts | 185° |
| 2026-05-08 07:54 | 48.20813 | 12.02263 | 9659 ft | 283 kts | 185° |
| 2026-05-08 07:55 | 48.18837 | 12.02152 | 10293 ft | 286 kts | 185° |
| 2026-05-08 07:55 | 48.16840 | 12.02040 | 10875 ft | 289 kts | 185° |
| 2026-05-08 07:55 | 48.14818 | 12.01925 | 11454 ft | 292 kts | 185° |
| 2026-05-08 07:55 | 48.12781 | 12.01807 | 12047 ft | 294 kts | 185° |
| 2026-05-08 07:56 | 48.10727 | 12.01686 | 12633 ft | 296 kts | 186° |
| 2026-05-08 07:56 | 48.08738 | 12.00997 | 13170 ft | 294 kts | 209° |
| 2026-05-08 07:56 | 48.07143 | 11.99134 | 13710 ft | 294 kts | 233° |
| 2026-05-08 07:56 | 48.06214 | 11.96417 | 14158 ft | 296 kts | 257° |
| 2026-05-08 07:57 | 48.05752 | 11.93411 | 14657 ft | 298 kts | 257° |
| 2026-05-08 07:57 | 48.05264 | 11.90402 | 15156 ft | 299 kts | 256° |
| 2026-05-08 07:57 | 48.04763 | 11.87417 | 15625 ft | 301 kts | 256° |
| 2026-05-08 07:57 | 48.04241 | 11.84337 | 16095 ft | 303 kts | 256° |
| 2026-05-08 07:58 | 48.03727 | 11.81312 | 16582 ft | 305 kts | 256° |
| 2026-05-08 07:58 | 48.03205 | 11.78233 | 17047 ft | 307 kts | 256° |
| 2026-05-08 07:58 | 48.02680 | 11.75135 | 17515 ft | 309 kts | 256° |
| 2026-05-08 07:58 | 48.02151 | 11.72019 | 17990 ft | 311 kts | 256° |
| 2026-05-08 07:59 | 48.01616 | 11.68877 | 18449 ft | 313 kts | 256° |
| 2026-05-08 07:59 | 48.01177 | 11.65696 | 18850 ft | 314 kts | 263° |
| 2026-05-08 07:59 | 48.01023 | 11.62434 | 19262 ft | 315 kts | 266° |
| 2026-05-08 07:59 | 48.00887 | 11.59160 | 19665 ft | 317 kts | 266° |
| 2026-05-08 08:00 | 48.00737 | 11.55866 | 20052 ft | 319 kts | 265° |
| 2026-05-08 08:00 | 48.00581 | 11.52550 | 20429 ft | 321 kts | 266° |
| 2026-05-08 08:00 | 48.00422 | 11.49212 | 20817 ft | 323 kts | 266° |
| 2026-05-08 08:00 | 48.00263 | 11.45852 | 21179 ft | 326 kts | 265° |
| 2026-05-08 08:01 | 48.00102 | 11.42462 | 21557 ft | 328 kts | 265° |
| 2026-05-08 08:01 | 47.99939 | 11.39057 | 21925 ft | 330 kts | 265° |
| 2026-05-08 08:01 | 47.99774 | 11.35624 | 22293 ft | 332 kts | 265° |
| 2026-05-08 08:01 | 47.99608 | 11.32175 | 22665 ft | 334 kts | 265° |
| 2026-05-08 08:02 | 47.99439 | 11.28695 | 23005 ft | 337 kts | 265° |
| 2026-05-08 08:02 | 47.99267 | 11.25192 | 23374 ft | 339 kts | 265° |
| 2026-05-08 08:02 | 47.99094 | 11.21674 | 23699 ft | 342 kts | 265° |
| 2026-05-08 08:02 | 47.98918 | 11.18130 | 24036 ft | 343 kts | 265° |
| 2026-05-08 08:03 | 47.98741 | 11.14566 | 24361 ft | 345 kts | 265° |
| 2026-05-08 08:03 | 47.98561 | 11.10985 | 24693 ft | 347 kts | 265° |
| 2026-05-08 08:03 | 47.98421 | 11.07380 | 24978 ft | 350 kts | 270° |
| 2026-05-08 08:03 | 47.98668 | 11.03745 | 25292 ft | 354 kts | 280° |
| 2026-05-08 08:04 | 47.99351 | 11.00207 | 25628 ft | 358 kts | 289° |
| 2026-05-08 08:04 | 48.00348 | 10.96767 | 25837 ft | 365 kts | 291° |
| 2026-05-08 08:04 | 48.01355 | 10.93238 | 25922 ft | 374 kts | 290° |
| 2026-05-08 08:04 | 48.02370 | 10.89630 | 26016 ft | 383 kts | 290° |
| 2026-05-08 08:05 | 48.03415 | 10.85901 | 26103 ft | 392 kts | 290° |
| 2026-05-08 08:05 | 48.04478 | 10.82108 | 26188 ft | 400 kts | 290° |
| 2026-05-08 08:05 | 48.05564 | 10.78240 | 26388 ft | 406 kts | 290° |
| 2026-05-08 08:05 | 48.06658 | 10.74340 | 26760 ft | 407 kts | 290° |
| 2026-05-08 08:06 | 48.07741 | 10.70475 | 27129 ft | 409 kts | 290° |
| 2026-05-08 08:06 | 48.08840 | 10.66543 | 27405 ft | 413 kts | 290° |
| 2026-05-08 08:06 | 48.09953 | 10.62557 | 27778 ft | 415 kts | 290° |
| 2026-05-08 08:06 | 48.11067 | 10.58560 | 28137 ft | 417 kts | 290° |
| 2026-05-08 08:07 | 48.12183 | 10.54546 | 28505 ft | 419 kts | 290° |
| 2026-05-08 08:07 | 48.13306 | 10.50503 | 28866 ft | 422 kts | 290° |
| 2026-05-08 08:07 | 48.14432 | 10.46442 | 29238 ft | 424 kts | 290° |
| 2026-05-08 08:07 | 48.15565 | 10.42349 | 29606 ft | 426 kts | 290° |
| 2026-05-08 08:08 | 48.16702 | 10.38233 | 29968 ft | 428 kts | 290° |
| 2026-05-08 08:08 | 48.17845 | 10.34090 | 30302 ft | 431 kts | 289° |
| 2026-05-08 08:08 | 48.18990 | 10.29929 | 30635 ft | 433 kts | 289° |
| 2026-05-08 08:08 | 48.19993 | 10.25648 | 30811 ft | 437 kts | 283° |
| 2026-05-08 08:09 | 48.20668 | 10.21212 | 31142 ft | 437 kts | 277° |
| 2026-05-08 08:09 | 48.21033 | 10.16694 | 31462 ft | 438 kts | 271° |
| 2026-05-08 08:09 | 48.21159 | 10.12127 | 31762 ft | 440 kts | 270° |
| 2026-05-08 08:09 | 48.21297 | 10.07529 | 32099 ft | 443 kts | 271° |
| 2026-05-08 08:10 | 48.21445 | 10.02913 | 32431 ft | 445 kts | 271° |
| 2026-05-08 08:10 | 48.21589 | 9.98321 | 32781 ft | 447 kts | 270° |
| 2026-05-08 08:10 | 48.21732 | 9.93588 | 33078 ft | 450 kts | 270° |
| 2026-05-08 08:10 | 48.21873 | 9.88888 | 33368 ft | 453 kts | 271° |
| 2026-05-08 08:11 | 48.22061 | 9.84215 | 33551 ft | 458 kts | 271° |
| 2026-05-08 08:11 | 48.22267 | 9.79687 | 33814 ft | 460 kts | 271° |
| 2026-05-08 08:11 | 48.22484 | 9.74889 | 34108 ft | 464 kts | 271° |
| 2026-05-08 08:12 | 48.23092 | 9.65114 | 34090 ft | 472 kts | 278° |
| 2026-05-08 08:12 | 48.24344 | 9.55456 | 34082 ft | 473 kts | 278° |
| 2026-05-08 08:13 | 48.25561 | 9.45755 | 34079 ft | 473 kts | 278° |
| 2026-05-08 08:13 | 48.26674 | 9.35967 | 34061 ft | 476 kts | 277° |
| 2026-05-08 08:14 | 48.27738 | 9.26139 | 34487 ft | 477 kts | 277° |
| 2026-05-08 08:14 | 48.28100 | 9.22817 | 34759 ft | 476 kts | 277° |
| 2026-05-08 08:14 | 48.28629 | 9.17979 | 35158 ft | 475 kts | 277° |
| 2026-05-08 08:14 | 48.29168 | 9.13041 | 35599 ft | 473 kts | 277° |
| 2026-05-08 08:15 | 48.29692 | 9.08226 | 35951 ft | 472 kts | 277° |
| 2026-05-08 08:15 | 48.30226 | 9.03293 | 36310 ft | 472 kts | 277° |
| 2026-05-08 08:15 | 48.30744 | 8.98487 | 36596 ft | 472 kts | 277° |
| 2026-05-08 08:15 | 48.31267 | 8.93628 | 36955 ft | 472 kts | 277° |
| 2026-05-08 08:16 | 48.31787 | 8.88770 | 37309 ft | 471 kts | 277° |
| 2026-05-08 08:16 | 48.32306 | 8.83907 | 37666 ft | 470 kts | 277° |
| 2026-05-08 08:16 | 48.32819 | 8.79067 | 37984 ft | 470 kts | 277° |
| 2026-05-08 08:17 | 48.33845 | 8.69342 | 38070 ft | 467 kts | 277° |
| 2026-05-08 08:17 | 48.34852 | 8.59724 | 38071 ft | 468 kts | 277° |
| 2026-05-08 08:18 | 48.35853 | 8.50065 | 38070 ft | 468 kts | 277° |
| 2026-05-08 08:18 | 48.36847 | 8.40404 | 38070 ft | 468 kts | 277° |
| 2026-05-08 08:19 | 48.37832 | 8.30738 | 38078 ft | 468 kts | 277° |
| 2026-05-08 08:19 | 48.38811 | 8.21057 | 38089 ft | 468 kts | 277° |
| 2026-05-08 08:20 | 48.39783 | 8.11363 | 38102 ft | 469 kts | 277° |
| 2026-05-08 08:20 | 48.40747 | 8.01663 | 38109 ft | 469 kts | 276° |
| 2026-05-08 08:21 | 48.41703 | 7.91952 | 38110 ft | 469 kts | 276° |
| 2026-05-08 08:21 | 48.42650 | 7.82251 | 38113 ft | 468 kts | 276° |
| 2026-05-08 08:22 | 48.43340 | 7.72516 | 38108 ft | 466 kts | 270° |
| 2026-05-08 08:22 | 48.43170 | 7.62840 | 38099 ft | 465 kts | 266° |
| 2026-05-08 08:23 | 48.42869 | 7.53126 | 38095 ft | 464 kts | 266° |
| 2026-05-08 08:23 | 48.42566 | 7.43414 | 38083 ft | 464 kts | 266° |
| 2026-05-08 08:24 | 48.42246 | 7.33717 | 38091 ft | 464 kts | 266° |
| 2026-05-08 08:24 | 48.41919 | 7.24082 | 38054 ft | 464 kts | 266° |
| 2026-05-08 08:25 | 48.41581 | 7.14374 | 38065 ft | 465 kts | 266° |
| 2026-05-08 08:25 | 48.41235 | 7.04667 | 38063 ft | 465 kts | 265° |
| 2026-05-08 08:26 | 48.40880 | 6.94948 | 38069 ft | 465 kts | 265° |
| 2026-05-08 08:26 | 48.40516 | 6.85219 | 38065 ft | 466 kts | 265° |
| 2026-05-08 08:27 | 48.40145 | 6.75497 | 38061 ft | 466 kts | 265° |
| 2026-05-08 08:27 | 48.39745 | 6.65766 | 38071 ft | 466 kts | 264° |
| 2026-05-08 08:28 | 48.39119 | 6.56069 | 38074 ft | 466 kts | 263° |
| 2026-05-08 08:28 | 48.38476 | 6.46383 | 38080 ft | 466 kts | 263° |
| 2026-05-08 08:29 | 48.37850 | 6.36687 | 38064 ft | 466 kts | 263° |
| 2026-05-08 08:29 | 48.37227 | 6.27055 | 38065 ft | 466 kts | 263° |
| 2026-05-08 08:30 | 48.36590 | 6.17350 | 38069 ft | 466 kts | 263° |
| 2026-05-08 08:30 | 48.35620 | 6.02809 | 38067 ft | 466 kts | 263° |
| 2026-05-08 08:31 | 48.34963 | 5.93112 | 38077 ft | 466 kts | 263° |
| 2026-05-08 08:31 | 48.34297 | 5.83407 | 38065 ft | 467 kts | 263° |
| 2026-05-08 08:32 | 48.33623 | 5.73708 | 38068 ft | 467 kts | 263° |
| 2026-05-08 08:32 | 48.32939 | 5.63996 | 38074 ft | 467 kts | 263° |
| 2026-05-08 08:33 | 48.32248 | 5.54283 | 38053 ft | 468 kts | 263° |
| 2026-05-08 08:33 | 48.31547 | 5.44574 | 38061 ft | 468 kts | 263° |
| 2026-05-08 08:34 | 48.30838 | 5.34854 | 38072 ft | 468 kts | 263° |
| 2026-05-08 08:34 | 48.30121 | 5.25134 | 38070 ft | 468 kts | 263° |
| 2026-05-08 08:35 | 48.29395 | 5.15408 | 38073 ft | 469 kts | 263° |
| 2026-05-08 08:35 | 48.28973 | 5.05630 | 38059 ft | 469 kts | 267° |
| 2026-05-08 08:36 | 48.28746 | 4.95843 | 38057 ft | 469 kts | 266° |
| 2026-05-08 08:36 | 48.28451 | 4.86054 | 38063 ft | 469 kts | 266° |
| 2026-05-08 08:37 | 48.28125 | 4.76331 | 38064 ft | 469 kts | 266° |
| 2026-05-08 08:37 | 48.27813 | 4.66551 | 38051 ft | 470 kts | 269° |
| 2026-05-08 08:38 | 48.28281 | 4.56763 | 38062 ft | 471 kts | 277° |
| 2026-05-08 08:38 | 48.29207 | 4.47030 | 38067 ft | 471 kts | 276° |
| 2026-05-08 08:39 | 48.30098 | 4.37285 | 38067 ft | 471 kts | 276° |
| 2026-05-08 08:39 | 48.30982 | 4.27537 | 38066 ft | 471 kts | 276° |
| 2026-05-08 08:40 | 48.31859 | 4.17790 | 38070 ft | 471 kts | 276° |
| 2026-05-08 08:40 | 48.32730 | 4.08029 | 38081 ft | 471 kts | 276° |
| 2026-05-08 08:41 | 48.33592 | 3.98267 | 38078 ft | 471 kts | 276° |
| 2026-05-08 08:41 | 48.34445 | 3.88502 | 38071 ft | 471 kts | 276° |
| 2026-05-08 08:42 | 48.35291 | 3.78729 | 38077 ft | 471 kts | 276° |
| 2026-05-08 08:42 | 48.36127 | 3.68965 | 38063 ft | 471 kts | 276° |
| 2026-05-08 08:43 | 48.36956 | 3.59189 | 38051 ft | 471 kts | 276° |
| 2026-05-08 08:43 | 48.37777 | 3.49417 | 38051 ft | 471 kts | 276° |
| 2026-05-08 08:44 | 48.38590 | 3.39629 | 38060 ft | 471 kts | 276° |
| 2026-05-08 08:44 | 48.39394 | 3.29844 | 38060 ft | 471 kts | 276° |
| 2026-05-08 08:45 | 48.40190 | 3.20051 | 38056 ft | 471 kts | 276° |
| 2026-05-08 08:45 | 48.40977 | 3.10268 | 38051 ft | 471 kts | 276° |
| 2026-05-08 08:46 | 48.41769 | 3.00491 | 38059 ft | 471 kts | 278° |
| 2026-05-08 08:46 | 48.43317 | 2.90905 | 38059 ft | 472 kts | 285° |
| 2026-05-08 08:47 | 48.45151 | 2.81415 | 38056 ft | 472 kts | 284° |
| 2026-05-08 08:47 | 48.46948 | 2.71987 | 38050 ft | 471 kts | 284° |
| 2026-05-08 08:48 | 48.48752 | 2.62494 | 38055 ft | 471 kts | 284° |
| 2026-05-08 08:48 | 48.50549 | 2.52988 | 38062 ft | 471 kts | 284° |
| 2026-05-08 08:49 | 48.52337 | 2.43488 | 38072 ft | 471 kts | 284° |
| 2026-05-08 08:49 | 48.54110 | 2.34017 | 38068 ft | 471 kts | 284° |
| 2026-05-08 08:50 | 48.55881 | 2.24511 | 38066 ft | 470 kts | 284° |
| 2026-05-08 08:50 | 48.57464 | 2.14949 | 38071 ft | 469 kts | 280° |
| 2026-05-08 08:51 | 48.58813 | 2.05304 | 38067 ft | 469 kts | 281° |
| 2026-05-08 08:51 | 48.60171 | 1.95666 | 38068 ft | 469 kts | 281° |
| 2026-05-08 08:52 | 48.61514 | 1.86027 | 38056 ft | 469 kts | 280° |
| 2026-05-08 08:52 | 48.62847 | 1.76379 | 38053 ft | 469 kts | 280° |
| 2026-05-08 08:53 | 48.64169 | 1.66737 | 38081 ft | 468 kts | 280° |
| 2026-05-08 08:53 | 48.65483 | 1.57070 | 38060 ft | 469 kts | 280° |
| 2026-05-08 08:54 | 48.66781 | 1.47423 | 38057 ft | 468 kts | 280° |
| 2026-05-08 08:54 | 48.68071 | 1.37774 | 38052 ft | 468 kts | 280° |
| 2026-05-08 08:55 | 48.69353 | 1.28127 | 38072 ft | 467 kts | 280° |
| 2026-05-08 08:55 | 48.70623 | 1.18515 | 38066 ft | 466 kts | 280° |
| 2026-05-08 08:56 | 48.71884 | 1.08897 | 38057 ft | 466 kts | 280° |
| 2026-05-08 08:56 | 48.73137 | 0.99278 | 38052 ft | 465 kts | 280° |
| 2026-05-08 08:57 | 48.74371 | 0.89741 | 38039 ft | 464 kts | 280° |
| 2026-05-08 08:57 | 48.75607 | 0.80152 | 38053 ft | 463 kts | 280° |
| 2026-05-08 08:58 | 48.76839 | 0.70560 | 38052 ft | 463 kts | 280° |
| 2026-05-08 08:58 | 48.78058 | 0.60990 | 38041 ft | 462 kts | 280° |
| 2026-05-08 08:59 | 48.79342 | 0.51437 | 38031 ft | 462 kts | 284° |
| 2026-05-08 08:59 | 48.81065 | 0.42047 | 38032 ft | 462 kts | 285° |
| 2026-05-08 09:00 | 48.82760 | 0.32653 | 38034 ft | 461 kts | 285° |
| 2026-05-08 09:00 | 48.84445 | 0.23262 | 38038 ft | 462 kts | 284° |
| 2026-05-08 09:01 | 48.86128 | 0.13849 | 38033 ft | 462 kts | 284° |
| 2026-05-08 09:01 | 48.87801 | 0.04434 | 38029 ft | 462 kts | 284° |
| 2026-05-08 09:02 | 48.89184 | -0.03389 | 38033 ft | 461 kts | 285° |
| 2026-05-08 09:02 | 48.90844 | -0.12811 | 38038 ft | 461 kts | 284° |
| 2026-05-08 09:03 | 48.92759 | -0.23746 | 38040 ft | 461 kts | 284° |
| 2026-05-08 09:03 | 48.94117 | -0.31640 | 38040 ft | 461 kts | 284° |
| 2026-05-08 09:04 | 48.95702 | -0.41079 | 38041 ft | 460 kts | 284° |
| 2026-05-08 09:04 | 48.97275 | -0.50465 | 38042 ft | 460 kts | 284° |
| 2026-05-08 09:05 | 48.98850 | -0.59894 | 38041 ft | 460 kts | 284° |
| 2026-05-08 09:05 | 49.00420 | -0.69344 | 38040 ft | 460 kts | 284° |
| 2026-05-08 09:06 | 49.01979 | -0.78782 | 38033 ft | 460 kts | 284° |
| 2026-05-08 09:06 | 49.03533 | -0.88242 | 38026 ft | 460 kts | 284° |
| 2026-05-08 09:07 | 49.05078 | -0.97696 | 38031 ft | 460 kts | 284° |
| 2026-05-08 09:07 | 49.06613 | -1.07151 | 38030 ft | 459 kts | 284° |
| 2026-05-08 09:08 | 49.08142 | -1.16612 | 38031 ft | 460 kts | 284° |
| 2026-05-08 09:08 | 49.09676 | -1.26090 | 38018 ft | 460 kts | 284° |
| 2026-05-08 09:09 | 49.11211 | -1.35564 | 38055 ft | 459 kts | 283° |
| 2026-05-08 09:09 | 49.12733 | -1.45022 | 38047 ft | 459 kts | 283° |
| 2026-05-08 09:10 | 49.14245 | -1.54477 | 38045 ft | 458 kts | 283° |
| 2026-05-08 09:10 | 49.15745 | -1.63914 | 38041 ft | 457 kts | 283° |
| 2026-05-08 09:11 | 49.17233 | -1.73327 | 38028 ft | 456 kts | 283° |
| 2026-05-08 09:11 | 49.18710 | -1.82730 | 38047 ft | 454 kts | 283° |
| 2026-05-08 09:12 | 49.20167 | -1.92057 | 38033 ft | 453 kts | 283° |
| 2026-05-08 09:12 | 49.21623 | -2.01428 | 38028 ft | 453 kts | 282° |
| 2026-05-08 09:13 | 49.23124 | -2.10773 | 38029 ft | 452 kts | 284° |
| 2026-05-08 09:13 | 49.24751 | -2.20062 | 38022 ft | 452 kts | 284° |
| 2026-05-08 09:14 | 49.26359 | -2.29359 | 38021 ft | 452 kts | 284° |
| 2026-05-08 09:14 | 49.27946 | -2.38685 | 38016 ft | 452 kts | 283° |
| 2026-05-08 09:15 | 49.29523 | -2.48021 | 38025 ft | 453 kts | 283° |
| 2026-05-08 09:15 | 49.31094 | -2.57365 | 38023 ft | 453 kts | 283° |
| 2026-05-08 09:16 | 49.32658 | -2.66724 | 38025 ft | 453 kts | 283° |
| 2026-05-08 09:16 | 49.34219 | -2.76113 | 38027 ft | 455 kts | 283° |
| 2026-05-08 09:17 | 49.35774 | -2.85518 | 38030 ft | 455 kts | 283° |
| 2026-05-08 09:17 | 49.37324 | -2.94942 | 38038 ft | 455 kts | 283° |